Time;durP1;ratioP1;P1;durP2;ratioP2;P2;SDS_P1;SDS_P2;PMS_P1;PMS_P2;Temp;Humidity;BMP_temperature;BMP_pressure;BME280_temperature;BME280_humidity;BME280_pressure;Samples;Min_cycle;Max_cycle;Signal;HPM_P1;HPM_P2
2022/09/06 00:02:16;;;;;;;4.30;2.90;;;22.40;84.40;;;;;;7386935;19;20447;-48
2022/09/06 00:04:47;;;;;;;4.67;2.67;;;22.50;85.00;;;;;;7390343;19;20372;-48
2022/09/06 00:07:16;;;;;;;4.10;3.07;;;22.40;85.90;;;;;;7385634;19;20396;-48
2022/09/06 00:09:48;;;;;;;3.17;2.87;;;22.20;87.10;;;;;;7388818;19;20455;-48
2022/09/06 00:12:18;;;;;;;4.73;3.30;;;22.30;87.20;;;;;;7387261;19;20936;-49
2022/09/06 00:14:47;;;;;;;4.30;3.60;;;22.30;86.00;;;;;;7388309;19;20823;-48
2022/09/06 00:17:17;;;;;;;4.63;3.00;;;22.40;86.30;;;;;;7386630;19;20373;-48
2022/09/06 00:19:46;;;;;;;3.77;2.90;;;22.40;86.40;;;;;;7389771;19;20405;-48
2022/09/06 00:22:16;;;;;;;4.27;3.00;;;22.20;86.70;;;;;;7389674;19;20790;-49
2022/09/06 00:24:48;;;;;;;3.80;3.40;;;22.10;88.40;;;;;;7389111;19;20482;-48
2022/09/06 00:27:18;;;;;;;3.30;3.00;;;22.20;88.10;;;;;;7390106;19;20387;-48
2022/09/06 00:29:47;;;;;;;5.80;3.30;;;22.00;89.70;;;;;;7387113;19;20396;-48
2022/09/06 00:32:17;;;;;;;3.73;3.43;;;21.80;91.00;;;;;;7388082;19;20360;-48
2022/09/06 00:34:46;;;;;;;8.27;3.73;;;21.70;90.80;;;;;;7388395;19;20380;-48
2022/09/06 00:37:18;;;;;;;3.70;3.30;;;21.70;91.40;;;;;;7386193;19;20368;-48
2022/09/06 00:39:50;;;;;;;5.80;3.07;;;21.90;90.90;;;;;;7388308;19;20388;-48
2022/09/06 00:42:19;;;;;;;3.53;3.23;;;22.00;90.20;;;;;;7386652;19;20912;-48
2022/09/06 00:44:50;;;;;;;7.17;3.60;;;21.90;90.40;;;;;;7387716;19;20383;-49
2022/09/06 00:47:20;;;;;;;4.00;2.97;;;21.80;90.70;;;;;;7389408;19;20379;-48
2022/09/06 00:49:53;;;;;;;3.60;3.03;;;21.90;90.40;;;;;;7387389;19;20388;-48
2022/09/06 00:52:26;;;;;;;4.10;3.17;;;22.10;90.00;;;;;;7389131;19;20382;-48
2022/09/06 00:54:58;;;;;;;7.30;3.90;;;22.10;89.40;;;;;;7386559;19;20464;-48
2022/09/06 00:57:31;;;;;;;4.60;3.80;;;21.90;90.10;;;;;;7387703;19;20360;-48
2022/09/06 01:00:01;;;;;;;4.07;2.90;;;21.90;90.40;;;;;;7387677;19;20425;-56
2022/09/06 01:02:31;;;;;;;6.17;3.50;;;21.80;90.90;;;;;;7389159;19;20384;-55
2022/09/06 01:05:01;;;;;;;3.97;3.17;;;21.70;91.10;;;;;;7388558;19;20372;-55
2022/09/06 01:07:42;;;;;;;5.73;3.47;;;21.70;91.40;;;;;;7388321;19;20372;-55
2022/09/06 01:10:41;;;;;;;2.90;2.53;;;21.70;91.00;;;;;;7388415;19;20405;-56
2022/09/06 01:13:24;;;;;;;3.30;3.00;;;21.50;91.50;;;;;;7386170;19;20405;-55
2022/09/06 01:16:01;;;;;;;3.60;2.97;;;21.30;93.00;;;;;;7386341;19;20384;-56
2022/09/06 01:18:45;;;;;;;5.03;3.60;;;21.20;92.60;;;;;;7387596;19;20387;-56
2022/09/06 01:21:36;;;;;;;3.60;3.30;;;21.10;93.30;;;;;;7386270;19;20372;-56
2022/09/06 01:24:48;;;;;;;3.27;2.97;;;21.10;94.40;;;;;;7386223;19;20380;-55
2022/09/06 01:27:50;;;;;;;5.00;3.40;;;21.10;94.20;;;;;;7386416;19;20512;-56
2022/09/06 01:30:22;;;;;;;3.80;3.00;;;21.30;94.10;;;;;;7386131;19;20444;-56
2022/09/06 01:32:58;;;;;;;5.20;3.20;;;21.40;93.60;;;;;;7387766;19;20376;-56
2022/09/06 01:35:34;;;;;;;5.50;3.43;;;21.40;93.20;;;;;;7385773;19;20380;-55
2022/09/06 01:38:04;;;;;;;5.70;3.60;;;21.40;92.80;;;;;;7386733;19;20914;-56
2022/09/06 01:40:35;;;;;;;3.70;3.40;;;21.30;93.30;;;;;;7387077;19;20408;-55
2022/09/06 01:43:06;;;;;;;3.80;3.40;;;21.30;93.40;;;;;;7385652;19;20408;-56
2022/09/06 01:45:49;;;;;;;4.30;3.77;;;21.20;93.70;;;;;;7383922;19;20403;-56
2022/09/06 01:48:26;;;;;;;4.67;3.50;;;21.30;93.80;;;;;;7384935;19;20388;-55
2022/09/06 01:51:11;;;;;;;4.67;3.63;;;21.20;94.10;;;;;;7384384;19;21029;-55
2022/09/06 01:53:54;;;;;;;4.40;3.40;;;21.30;93.60;;;;;;7381753;19;20386;-55
2022/09/06 01:56:38;;;;;;;4.37;3.43;;;21.40;93.00;;;;;;7383231;19;20368;-55
2022/09/06 01:59:28;;;;;;;3.50;3.17;;;21.20;93.80;;;;;;7381308;19;20737;-55
2022/09/06 02:02:07;;;;;;;6.37;3.57;;;21.10;94.70;;;;;;7380350;19;20420;-55
2022/09/06 02:04:45;;;;;;;3.73;3.33;;;20.90;96.00;;;;;;7383400;19;20376;-55
2022/09/06 02:07:21;;;;;;;5.43;3.40;;;20.80;96.40;;;;;;7384374;19;20392;-55
2022/09/06 02:09:56;;;;;;;5.77;4.30;;;20.80;96.50;;;;;;7383453;19;20387;-55
2022/09/06 02:12:29;;;;;;;4.67;3.90;;;20.90;96.70;;;;;;7383490;19;20387;-55
2022/09/06 02:15:03;;;;;;;6.23;3.00;;;21.10;95.80;;;;;;7384319;19;20455;-55
2022/09/06 02:17:40;;;;;;;7.00;3.60;;;20.90;96.40;;;;;;7384088;19;20380;-56
2022/09/06 02:20:14;;;;;;;4.10;3.00;;;20.80;97.50;;;;;;7383889;19;20917;-56
2022/09/06 02:22:48;;;;;;;4.03;3.60;;;20.90;96.70;;;;;;7382303;19;20370;-56
2022/09/06 02:25:24;;;;;;;4.73;3.47;;;21.00;94.10;;;;;;7383388;19;20443;-55
2022/09/06 02:27:53;;;;;;;5.23;4.30;;;21.20;93.10;;;;;;7383522;19;20376;-56
2022/09/06 02:30:25;;;;;;;3.73;3.43;;;21.30;92.70;;;;;;7382696;19;20422;-48
2022/09/06 02:33:01;;;;;;;5.43;3.57;;;21.40;92.00;;;;;;7381971;19;20372;-48
2022/09/06 02:35:31;;;;;;;4.63;3.53;;;21.20;92.40;;;;;;7381264;19;21063;-48
2022/09/06 02:38:00;;;;;;;9.53;4.23;;;21.00;93.10;;;;;;7383399;19;20373;-47
2022/09/06 02:40:30;;;;;;;5.50;4.00;;;20.90;93.70;;;;;;7384267;19;20379;-48
2022/09/06 02:42:59;;;;;;;4.70;3.70;;;20.90;93.90;;;;;;7383630;19;20395;-48
2022/09/06 02:45:32;;;;;;;3.90;3.10;;;20.90;94.20;;;;;;7383563;19;20991;-48
2022/09/06 02:48:04;;;;;;;6.70;3.83;;;20.90;94.20;;;;;;7383772;19;20408;-48
2022/09/06 02:50:35;;;;;;;3.50;2.97;;;21.00;94.40;;;;;;7384030;19;20384;-48
2022/09/06 02:53:08;;;;;;;4.10;3.67;;;21.00;95.80;;;;;;7382001;19;20387;-49
2022/09/06 02:55:38;;;;;;;4.93;4.30;;;21.20;97.30;;;;;;7383308;19;20972;-48
2022/09/06 02:58:09;;;;;;;5.60;4.37;;;21.20;99.90;;;;;;7383252;19;21003;-48
2022/09/06 03:00:39;;;;;;;7.30;4.47;;;21.40;99.90;;;;;;7380860;19;20542;-55
2022/09/06 03:03:11;;;;;;;8.10;4.53;;;21.40;99.90;;;;;;7381501;19;20372;-55
2022/09/06 03:05:41;;;;;;;8.10;4.83;;;21.60;99.90;;;;;;7384282;19;20391;-55
2022/09/06 03:08:10;;;;;;;6.80;4.77;;;21.30;99.90;;;;;;7388946;19;20372;-55
2022/09/06 03:10:40;;;;;;;11.40;5.93;;;21.10;99.90;;;;;;7389071;19;20391;-55
2022/09/06 03:13:09;;;;;;;6.20;4.73;;;20.70;99.90;;;;;;7391207;19;20380;-55
2022/09/06 03:15:39;;;;;;;8.33;5.37;;;20.40;99.90;;;;;;7388707;19;20376;-55
2022/09/06 03:18:11;;;;;;;7.23;4.50;;;20.50;99.90;;;;;;7388432;19;20396;-56
2022/09/06 03:20:40;;;;;;;6.67;5.53;;;20.70;99.90;;;;;;7392187;19;20372;-54
2022/09/06 03:23:10;;;;;;;6.63;5.00;;;20.50;99.90;;;;;;7388712;19;20441;-55
2022/09/06 03:25:39;;;;;;;7.80;5.33;;;20.30;99.90;;;;;;7389658;19;20376;-55
2022/09/06 03:28:09;;;;;;;11.43;5.30;;;20.20;99.90;;;;;;7390009;19;20392;-55
2022/09/06 03:30:38;;;;;;;10.10;5.17;;;20.00;99.90;;;;;;7390838;19;20383;-55
2022/09/06 03:33:10;;;;;;;8.50;6.00;;;20.10;99.90;;;;;;7390550;19;20368;-55
2022/09/06 03:35:40;;;;;;;5.27;4.77;;;20.40;99.90;;;;;;7388384;19;20388;-55
2022/09/06 03:38:12;;;;;;;6.87;4.90;;;20.60;99.90;;;;;;7389922;19;20408;-55
2022/09/06 03:40:41;;;;;;;6.00;5.50;;;20.70;99.90;;;;;;7389988;19;20383;-55
2022/09/06 03:43:11;;;;;;;8.00;5.80;;;20.70;99.90;;;;;;7388746;19;20372;-55
2022/09/06 03:45:40;;;;;;;8.40;4.83;;;20.70;99.90;;;;;;7388024;19;20369;-55
2022/09/06 03:48:12;;;;;;;5.37;4.90;;;20.30;99.90;;;;;;7390310;19;21826;-55
2022/09/06 03:50:46;;;;;;;10.57;5.50;;;20.00;99.90;;;;;;7390124;19;20796;-56
2022/09/06 03:53:19;;;;;;;5.10;4.60;;;19.80;99.90;;;;;;7388876;19;20399;-55
2022/09/06 03:55:53;;;;;;;5.90;5.27;;;19.70;99.90;;;;;;7387439;19;21028;-55
2022/09/06 03:58:24;;;;;;;6.40;5.00;;;19.60;99.90;;;;;;7386774;19;20445;-55
2022/09/06 04:01:03;;;;;;;6.00;5.40;;;19.60;99.90;;;;;;7387296;19;20981;-55
2022/09/06 04:03:35;;;;;;;6.93;5.60;;;19.50;99.90;;;;;;7389472;19;20752;-55
2022/09/06 04:06:07;;;;;;;6.30;5.50;;;19.50;99.90;;;;;;7386607;19;20400;-55
2022/09/06 04:08:37;;;;;;;5.77;5.17;;;19.40;99.90;;;;;;7387606;19;20748;-55
2022/09/06 04:11:09;;;;;;;6.97;5.73;;;19.50;99.90;;;;;;7388532;19;20376;-56
2022/09/06 04:13:38;;;;;;;5.47;4.97;;;19.60;99.90;;;;;;7387734;19;20372;-55
2022/09/06 04:16:08;;;;;;;5.67;4.30;;;19.70;99.90;;;;;;7389530;19;20942;-55
2022/09/06 04:18:40;;;;;;;5.07;4.57;;;19.80;99.90;;;;;;7389410;19;20415;-55
2022/09/06 04:21:10;;;;;;;6.73;5.07;;;20.00;99.90;;;;;;7389480;19;20456;-55
2022/09/06 04:23:39;;;;;;;7.63;5.40;;;19.90;99.90;;;;;;7388501;19;20401;-56
2022/09/06 04:26:11;;;;;;;7.30;5.03;;;19.70;99.90;;;;;;7388022;19;20455;-55
2022/09/06 04:28:43;;;;;;;5.50;4.70;;;19.40;99.90;;;;;;7388385;19;20388;-55
2022/09/06 04:31:15;;;;;;;7.37;5.63;;;19.30;99.90;;;;;;7387159;19;20372;-55
2022/09/06 04:33:47;;;;;;;7.27;4.70;;;19.40;99.90;;;;;;7389084;19;20728;-55
2022/09/06 04:36:16;;;;;;;6.77;5.10;;;19.40;99.90;;;;;;7387534;19;20380;-56
2022/09/06 04:38:46;;;;;;;5.17;4.60;;;19.70;99.90;;;;;;7386187;19;20421;-56
2022/09/06 04:41:18;;;;;;;7.80;5.73;;;20.00;99.90;;;;;;7386984;19;20901;-56
2022/09/06 04:43:47;;;;;;;10.70;5.47;;;20.10;99.90;;;;;;7389052;19;20392;-55
2022/09/06 04:46:22;;;;;;;6.93;4.83;;;20.20;99.90;;;;;;7386232;19;20388;-56
2022/09/06 04:48:56;;;;;;;6.30;5.13;;;20.40;99.90;;;;;;7388814;19;20374;-55
2022/09/06 04:51:27;;;;;;;7.60;5.10;;;20.20;99.90;;;;;;7388464;19;20427;-55
2022/09/06 04:53:56;;;;;;;5.83;4.93;;;20.20;99.90;;;;;;7387034;19;20977;-55
2022/09/06 04:56:27;;;;;;;5.80;5.10;;;20.20;99.90;;;;;;7385301;19;20721;-56
2022/09/06 04:58:58;;;;;;;7.10;6.00;;;20.00;99.90;;;;;;7387305;19;20395;-55
2022/09/06 05:01:28;;;;;;;5.93;5.33;;;19.80;99.90;;;;;;7386062;19;20436;-54
2022/09/06 05:04:02;;;;;;;6.43;4.60;;;19.80;99.90;;;;;;7385207;19;20380;-55
2022/09/06 05:06:31;;;;;;;6.10;5.43;;;19.80;99.90;;;;;;7386778;19;20490;-55
2022/09/06 05:09:01;;;;;;;6.93;5.43;;;19.80;99.90;;;;;;7388257;19;20418;-54
2022/09/06 05:11:30;;;;;;;7.53;5.70;;;19.90;99.90;;;;;;7387557;19;20380;-55
2022/09/06 05:14:00;;;;;;;6.10;5.40;;;19.90;99.90;;;;;;7387747;19;20373;-55
2022/09/06 05:16:29;;;;;;;5.17;4.67;;;20.10;99.90;;;;;;7386733;19;20444;-55
2022/09/06 05:19:01;;;;;;;7.30;4.90;;;20.30;99.90;;;;;;7385516;19;20368;-55
2022/09/06 05:21:31;;;;;;;6.90;5.10;;;20.40;99.90;;;;;;7386624;19;20397;-55
2022/09/06 05:24:00;;;;;;;5.53;4.90;;;20.50;99.90;;;;;;7385068;19;20906;-55
2022/09/06 05:26:30;;;;;;;7.47;4.77;;;20.30;99.90;;;;;;7386647;19;20892;-56
2022/09/06 05:29:01;;;;;;;7.37;5.47;;;20.20;99.90;;;;;;7385370;19;20930;-55
2022/09/06 05:31:32;;;;;;;7.60;5.80;;;20.20;99.90;;;;;;7384845;19;20372;-55
2022/09/06 05:34:05;;;;;;;6.97;5.97;;;20.20;99.90;;;;;;7388785;19;20372;-55
2022/09/06 05:36:34;;;;;;;8.40;5.50;;;20.00;99.90;;;;;;7384940;19;20730;-54
2022/09/06 05:39:04;;;;;;;6.43;5.83;;;19.90;99.90;;;;;;7386703;19;20396;-55
2022/09/06 05:41:35;;;;;;;6.73;4.93;;;19.90;99.90;;;;;;7387135;19;20361;-55
2022/09/06 05:44:07;;;;;;;7.40;5.87;;;19.80;99.90;;;;;;7387442;19;20444;-55
2022/09/06 05:46:43;;;;;;;7.40;5.40;;;19.80;99.90;;;;;;7386164;19;20752;-56
2022/09/06 05:49:18;;;;;;;5.40;4.90;;;20.00;99.90;;;;;;7387408;19;20368;-55
2022/09/06 05:51:52;;;;;;;8.50;5.17;;;19.90;99.90;;;;;;7386666;19;20380;-55
2022/09/06 05:54:22;;;;;;;7.17;5.70;;;19.90;99.90;;;;;;7386389;19;20371;-55
2022/09/06 05:56:51;;;;;;;6.30;5.60;;;19.90;99.90;;;;;;7386674;19;20380;-55
2022/09/06 05:59:21;;;;;;;6.07;5.47;;;19.90;99.90;;;;;;7384449;19;20431;-56
2022/09/06 06:01:54;;;;;;;5.63;5.07;;;19.90;99.90;;;;;;7384969;19;20440;-56
2022/09/06 06:04:26;;;;;;;7.60;6.37;;;19.80;99.90;;;;;;7384920;19;20371;-57
2022/09/06 06:06:56;;;;;;;12.50;5.63;;;19.90;99.90;;;;;;7384410;19;20387;-55
2022/09/06 06:09:25;;;;;;;6.17;5.40;;;19.90;99.90;;;;;;7384991;19;20373;-56
2022/09/06 06:11:54;;;;;;;5.87;5.20;;;20.20;99.90;;;;;;7385136;19;20379;-56
2022/09/06 06:14:24;;;;;;;7.53;4.57;;;20.40;99.90;;;;;;7385667;19;20376;-56
2022/09/06 06:16:53;;;;;;;6.63;5.43;;;20.60;99.90;;;;;;7384040;19;20448;-56
2022/09/06 06:19:25;;;;;;;5.13;4.63;;;20.70;99.90;;;;;;7384885;19;20407;-56
2022/09/06 06:21:57;;;;;;;5.30;4.80;;;20.70;99.90;;;;;;7384575;19;20910;-48
2022/09/06 06:24:26;;;;;;;6.73;5.70;;;20.80;99.90;;;;;;7383795;19;20420;-48
2022/09/06 06:26:56;;;;;;;5.80;5.23;;;20.90;99.90;;;;;;7384835;19;20372;-47
2022/09/06 06:29:26;;;;;;;7.40;6.17;;;21.00;99.90;;;;;;7385874;19;20375;-47
2022/09/06 06:32:00;;;;;;;7.30;6.03;;;20.90;99.90;;;;;;7383781;19;20392;-47
2022/09/06 06:34:32;;;;;;;9.10;5.13;;;21.00;99.90;;;;;;7383941;19;20454;-48
2022/09/06 06:37:02;;;;;;;7.43;5.47;;;21.10;99.90;;;;;;7383883;19;20383;-48
2022/09/06 06:39:31;;;;;;;8.63;5.07;;;21.20;99.90;;;;;;7384632;19;21022;-48
2022/09/06 06:42:01;;;;;;;10.03;5.77;;;21.40;99.90;;;;;;7393924;19;20384;-48
2022/09/06 06:44:54;;;;;;;7.00;6.00;;;21.60;99.90;;;;;;7391631;19;20372;-48
2022/09/06 06:47:24;;;;;;;6.53;5.30;;;21.60;99.90;;;;;;7391461;19;20457;-48
2022/09/06 06:49:56;;;;;;;10.87;6.30;;;21.60;99.90;;;;;;7392022;19;20443;-56
2022/09/06 06:52:28;;;;;;;5.50;4.90;;;21.70;99.90;;;;;;7390887;19;20376;-56
2022/09/06 06:54:57;;;;;;;10.13;6.10;;;21.70;99.90;;;;;;7390081;19;20745;-56
2022/09/06 06:57:27;;;;;;;6.87;5.00;;;21.90;99.90;;;;;;7393206;19;20474;-56
2022/09/06 06:59:57;;;;;;;5.90;5.00;;;22.10;99.90;;;;;;7390910;19;20391;-56
2022/09/06 07:02:26;;;;;;;6.83;5.47;;;22.20;99.90;;;;;;7389651;19;20504;-56
2022/09/06 07:04:58;;;;;;;6.30;5.13;;;22.20;99.90;;;;;;7391203;19;20387;-56
2022/09/06 07:07:28;;;;;;;7.40;5.60;;;22.50;99.90;;;;;;7388258;19;20380;-57
2022/09/06 07:09:58;;;;;;;8.60;5.17;;;22.70;99.90;;;;;;7392450;19;20886;-57
2022/09/06 07:12:27;;;;;;;8.30;5.20;;;22.90;99.90;;;;;;7389268;19;20386;-56
2022/09/06 07:14:56;;;;;;;6.53;5.10;;;23.10;99.90;;;;;;7390435;19;20715;-57
2022/09/06 07:17:30;;;;;;;11.90;5.37;;;23.20;99.90;;;;;;7390690;19;20372;-57
2022/09/06 07:20:02;;;;;;;7.67;5.30;;;23.40;99.90;;;;;;7388902;19;20391;-57
2022/09/06 07:22:31;;;;;;;6.57;5.50;;;23.50;99.90;;;;;;7392196;19;20969;-57
2022/09/06 07:25:01;;;;;;;6.33;4.87;;;23.60;99.90;;;;;;7391569;19;20364;-57
2022/09/06 07:27:33;;;;;;;7.17;5.30;;;23.80;99.90;;;;;;7392189;19;20388;-57
2022/09/06 07:30:02;;;;;;;6.60;4.23;;;24.00;98.30;;;;;;7390648;19;20383;-57
2022/09/06 07:32:32;;;;;;;10.60;5.07;;;23.90;96.00;;;;;;7392215;19;20372;-56
2022/09/06 07:35:04;;;;;;;4.70;4.20;;;24.00;99.90;;;;;;7391015;19;20887;-56
2022/09/06 07:37:34;;;;;;;5.43;4.50;;;24.10;97.40;;;;;;7388781;19;20364;-57
2022/09/06 07:40:06;;;;;;;5.40;3.83;;;24.10;98.20;;;;;;7390338;19;20384;-57
2022/09/06 07:42:36;;;;;;;5.13;4.23;;;24.20;96.80;;;;;;7391498;19;20376;-56
2022/09/06 07:45:06;;;;;;;8.73;3.90;;;24.30;95.30;;;;;;7391804;19;20367;-57
2022/09/06 07:47:35;;;;;;;5.90;4.23;;;24.40;93.00;;;;;;7389727;19;20416;-57
2022/09/06 07:50:10;;;;;;;5.07;3.60;;;24.60;92.80;;;;;;7390435;19;20842;-57
2022/09/06 07:52:40;;;;;;;4.63;4.20;;;24.70;92.10;;;;;;7388721;19;20890;-57
2022/09/06 07:55:10;;;;;;;8.00;3.40;;;24.90;93.40;;;;;;7390088;19;21029;-57
2022/09/06 07:57:39;;;;;;;4.13;3.27;;;25.10;89.60;;;;;;7387415;19;20375;-58
2022/09/06 08:00:11;;;;;;;5.63;3.50;;;25.30;90.10;;;;;;7387905;19;20384;-57
2022/09/06 08:02:43;;;;;;;3.40;3.10;;;25.50;85.20;;;;;;7389758;19;20398;-58
2022/09/06 08:05:15;;;;;;;4.27;3.33;;;25.60;83.30;;;;;;7387642;19;20380;-57
2022/09/06 08:07:44;;;;;;;3.17;2.90;;;25.70;77.30;;;;;;7387641;19;20383;-56
2022/09/06 08:10:14;;;;;;;3.77;2.70;;;25.80;79.20;;;;;;7390242;19;20421;-57
2022/09/06 08:12:43;;;;;;;4.90;3.30;;;25.70;75.80;;;;;;7385179;19;20380;-58
2022/09/06 08:15:13;;;;;;;3.50;3.20;;;25.90;75.80;;;;;;7388966;19;20371;-57
2022/09/06 08:17:43;;;;;;;5.80;3.70;;;25.90;80.30;;;;;;7388814;19;20364;-57
2022/09/06 08:20:15;;;;;;;4.53;3.60;;;26.00;78.60;;;;;;7386278;19;20384;-57
2022/09/06 08:22:47;;;;;;;4.43;3.50;;;25.90;82.30;;;;;;7388330;19;21062;-57
2022/09/06 08:25:18;;;;;;;5.73;3.43;;;25.90;76.60;;;;;;7386986;19;20372;-57
2022/09/06 08:27:48;;;;;;;6.90;5.00;;;26.00;76.40;;;;;;7386093;19;20407;-57
2022/09/06 08:30:17;;;;;;;6.27;3.70;;;26.20;75.80;;;;;;7387928;19;20380;-57
2022/09/06 08:32:47;;;;;;;5.20;3.60;;;26.40;73.30;;;;;;7387369;19;21056;-57
2022/09/06 08:35:19;;;;;;;5.73;3.50;;;26.70;71.40;;;;;;7388655;19;20412;-58
2022/09/06 08:37:49;;;;;;;4.30;3.10;;;27.20;67.60;;;;;;7385507;19;20485;-58
2022/09/06 08:40:23;;;;;;;3.60;3.10;;;27.40;66.90;;;;;;7386758;19;20409;-58
2022/09/06 08:42:55;;;;;;;6.30;3.57;;;27.80;65.50;;;;;;7388865;19;20413;-58
2022/09/06 08:45:25;;;;;;;3.67;3.37;;;28.20;64.10;;;;;;7388273;19;20380;-58
2022/09/06 08:47:55;;;;;;;4.83;3.37;;;28.30;63.40;;;;;;7386396;19;20831;-58
2022/09/06 08:50:30;;;;;;;4.27;3.30;;;28.40;63.00;;;;;;7387758;19;20953;-58
2022/09/06 08:53:06;;;;;;;4.90;3.00;;;28.70;61.60;;;;;;7387550;19;21015;-58
2022/09/06 08:55:43;;;;;;;8.37;2.90;;;28.80;59.80;;;;;;7387459;19;20376;-58
2022/09/06 08:58:28;;;;;;;8.40;3.20;;;29.00;60.10;;;;;;7386485;19;20372;-58
2022/09/06 09:01:02;;;;;;;5.97;3.03;;;29.40;57.80;;;;;;7383795;19;20424;-49
2022/09/06 09:03:35;;;;;;;4.37;3.27;;;29.60;57.20;;;;;;7386117;19;20408;-49
2022/09/06 09:06:10;;;;;;;4.10;2.90;;;29.80;56.60;;;;;;7384489;19;20822;-49
2022/09/06 09:08:47;;;;;;;7.17;3.67;;;30.00;55.20;;;;;;7386622;19;20373;-49
2022/09/06 09:11:19;;;;;;;3.83;2.67;;;30.30;55.70;;;;;;7384991;19;20386;-49
2022/09/06 09:13:55;;;;;;;4.13;3.10;;;30.40;54.20;;;;;;7385934;19;20384;-49
2022/09/06 09:16:25;;;;;;;5.30;3.10;;;30.30;54.80;;;;;;7386998;19;20364;-48
2022/09/06 09:19:00;;;;;;;4.43;2.87;;;30.20;54.30;;;;;;7383867;19;20371;-49
2022/09/06 09:21:35;;;;;;;5.40;3.33;;;29.90;54.40;;;;;;7383015;19;20429;-49
2022/09/06 09:24:08;;;;;;;5.00;2.70;;;29.90;54.90;;;;;;7385284;19;20488;-49
2022/09/06 09:26:42;;;;;;;4.43;3.13;;;30.30;54.50;;;;;;7386761;19;20981;-49
2022/09/06 09:29:16;;;;;;;6.03;3.30;;;30.80;53.80;;;;;;7386614;19;20507;-49
2022/09/06 09:31:50;;;;;;;7.70;4.07;;;31.10;53.00;;;;;;7384961;19;20387;-49
2022/09/06 09:34:32;;;;;;;6.67;5.10;;;30.80;52.50;;;;;;7383389;19;20380;-49
2022/09/06 09:37:24;;;;;;;3.73;2.70;;;30.70;53.30;;;;;;7386531;19;20388;-48
2022/09/06 09:39:56;;;;;;;8.10;3.57;;;30.60;53.80;;;;;;7384208;19;20471;-48
2022/09/06 09:42:30;;;;;;;5.60;3.10;;;30.60;54.20;;;;;;7384744;19;20731;-48
2022/09/06 09:45:02;;;;;;;4.10;3.20;;;30.70;53.30;;;;;;7384197;19;20386;-48
2022/09/06 09:47:33;;;;;;;4.30;3.10;;;31.10;54.00;;;;;;7383837;19;20407;-48
2022/09/06 09:50:02;;;;;;;4.27;2.83;;;31.80;52.70;;;;;;7385675;19;20777;-48
2022/09/06 09:52:34;;;;;;;3.73;3.30;;;32.30;50.70;;;;;;7385341;19;20416;-48
2022/09/06 09:55:07;;;;;;;8.70;3.33;;;32.60;49.70;;;;;;7384266;19;20376;-48
2022/09/06 09:57:47;;;;;;;4.40;2.77;;;32.50;49.10;;;;;;7384092;19;20419;-48
2022/09/06 10:00:35;;;;;;;7.93;3.20;;;32.80;49.20;;;;;;7384946;19;20392;-49
2022/09/06 10:03:14;;;;;;;6.07;3.27;;;32.90;48.70;;;;;;7383970;19;20368;-48
2022/09/06 10:05:59;;;;;;;5.07;3.23;;;33.20;48.80;;;;;;7385204;19;20391;-48
2022/09/06 10:08:34;;;;;;;6.60;3.23;;;33.20;48.60;;;;;;7385979;19;20412;-48
2022/09/06 10:11:04;;;;;;;5.57;3.30;;;33.60;47.80;;;;;;7384822;19;20487;-49
2022/09/06 10:13:34;;;;;;;4.20;2.93;;;34.00;47.10;;;;;;7386343;19;20379;-49
2022/09/06 10:16:04;;;;;;;6.00;3.37;;;34.50;46.40;;;;;;7384776;19;21024;-50
2022/09/06 10:18:38;;;;;;;3.70;3.00;;;34.60;46.00;;;;;;7386379;19;20415;-49
2022/09/06 10:21:13;;;;;;;8.53;3.30;;;34.80;45.60;;;;;;7385091;19;20384;-49
2022/09/06 10:24:07;;;;;;;4.43;2.77;;;34.70;45.60;;;;;;7383460;19;20379;-49
2022/09/06 10:26:47;;;;;;;3.50;2.90;;;34.80;44.50;;;;;;7384305;19;20399;-49
2022/09/06 10:29:29;;;;;;;4.80;2.97;;;34.90;44.20;;;;;;7383639;19;20380;-49
2022/09/06 10:32:14;;;;;;;4.80;2.40;;;35.40;41.30;;;;;;7383971;19;20372;-58
2022/09/06 10:35:03;;;;;;;3.87;2.63;;;35.60;39.70;;;;;;7384743;19;20443;-57
2022/09/06 10:37:48;;;;;;;12.70;5.67;;;35.40;40.30;;;;;;7384771;19;20376;-57
2022/09/06 10:40:31;;;;;;;5.37;2.90;;;35.10;41.80;;;;;;7383554;19;20675;-58
2022/09/06 10:43:02;;;;;;;3.50;2.30;;;34.50;43.40;;;;;;7385617;19;20804;-58
2022/09/06 10:45:47;;;;;;;3.23;2.33;;;33.60;43.80;;;;;;7385133;19;20391;-57
2022/09/06 10:48:25;;;;;;;6.50;4.53;;;33.20;45.40;;;;;;7385258;19;20402;-57
2022/09/06 10:51:00;;;;;;;5.20;2.67;;;32.80;46.10;;;;;;7385743;19;20372;-56
2022/09/06 10:53:40;;;;;;;5.53;3.10;;;32.10;47.10;;;;;;7383517;19;20376;-57
2022/09/06 10:56:18;;;;;;;6.87;2.83;;;32.00;47.80;;;;;;7386005;19;20491;-56
2022/09/06 10:58:55;;;;;;;6.40;3.60;;;31.60;48.70;;;;;;7382624;19;20388;-57
2022/09/06 11:01:32;;;;;;;5.27;2.80;;;31.50;48.40;;;;;;7381907;19;20494;-56
2022/09/06 11:04:02;;;;;;;6.77;3.50;;;31.40;48.80;;;;;;7383501;19;20383;-56
2022/09/06 11:06:36;;;;;;;5.50;2.93;;;31.10;49.70;;;;;;7380157;19;21112;-58
2022/09/06 11:09:12;;;;;;;4.77;2.97;;;31.00;49.60;;;;;;7383280;19;20478;-56
2022/09/06 11:11:52;;;;;;;6.70;3.50;;;31.20;49.80;;;;;;7384616;19;20371;-56
2022/09/06 11:14:27;;;;;;;4.97;2.90;;;31.20;49.80;;;;;;7382071;19;20364;-57
2022/09/06 11:17:02;;;;;;;4.63;3.73;;;31.00;50.00;;;;;;7382762;19;21191;-57
2022/09/06 11:19:35;;;;;;;5.23;2.97;;;31.00;50.70;;;;;;7381534;19;21000;-57
2022/09/06 11:22:23;;;;;;;8.43;3.83;;;31.00;51.60;;;;;;7379280;19;20897;-56
2022/09/06 11:25:21;;;;;;;5.10;3.20;;;31.00;51.10;;;;;;7384712;19;20380;-56
2022/09/06 11:27:57;;;;;;;5.93;3.23;;;31.30;51.70;;;;;;7387685;19;20411;-56
2022/09/06 11:30:28;;;;;;;4.80;2.60;;;31.50;51.20;;;;;;7390865;19;20753;-57
2022/09/06 11:33:12;;;;;;;6.40;2.93;;;32.10;50.70;;;;;;7391528;19;20962;-57
2022/09/06 11:35:43;;;;;;;7.03;3.63;;;32.60;49.60;;;;;;7390633;19;20968;-57
2022/09/06 11:38:23;;;;;;;6.60;3.00;;;32.80;48.90;;;;;;7389834;19;20364;-57
2022/09/06 11:41:02;;;;;;;11.60;3.63;;;33.20;48.80;;;;;;7388672;19;20389;-48
2022/09/06 11:43:48;;;;;;;7.87;3.87;;;33.50;47.90;;;;;;7389623;19;20400;-48
2022/09/06 11:46:48;;;;;;;6.63;3.90;;;34.10;47.20;;;;;;7389158;19;20376;-48
2022/09/06 11:49:37;;;;;;;7.73;4.37;;;34.50;46.20;;;;;;7388625;19;20395;-49
2022/09/06 11:52:37;;;;;;;6.40;3.87;;;34.70;45.10;;;;;;7390038;19;20914;-48
2022/09/06 11:55:13;;;;;;;6.90;3.20;;;34.80;45.10;;;;;;7390077;19;20913;-48
2022/09/06 11:57:49;;;;;;;4.90;3.10;;;34.90;44.80;;;;;;7390032;19;20372;-49
2022/09/06 12:00:25;;;;;;;4.63;2.93;;;35.10;44.50;;;;;;7387326;19;20910;-49
2022/09/06 12:02:55;;;;;;;6.33;3.53;;;35.40;44.10;;;;;;7390078;19;20380;-49
2022/09/06 12:05:30;;;;;;;5.27;3.47;;;35.60;43.50;;;;;;7388435;19;20406;-48
2022/09/06 12:08:27;;;;;;;5.40;3.77;;;35.40;44.30;;;;;;7390071;19;20922;-49
2022/09/06 12:11:27;;;;;;;8.50;3.03;;;35.30;43.90;;;;;;7388946;19;20387;-57
2022/09/06 12:14:05;;;;;;;4.07;2.97;;;35.30;43.80;;;;;;7388313;19;20415;-57
2022/09/06 12:17:07;;;;;;;5.07;4.10;;;35.40;43.60;;;;;;7386120;19;20372;-58
2022/09/06 12:19:48;;;;;;;5.23;3.43;;;35.70;43.10;;;;;;7387518;19;20418;-58
2022/09/06 12:23:03;;;;;;;8.17;3.90;;;35.90;43.00;;;;;;7388187;19;20380;-59
2022/09/06 12:25:55;;;;;;;6.00;3.83;;;35.80;43.10;;;;;;7387900;19;21262;-58
2022/09/06 12:28:40;;;;;;;12.83;5.20;;;35.40;43.90;;;;;;7389271;19;20376;-59
2022/09/06 12:31:29;;;;;;;5.60;2.90;;;35.30;44.20;;;;;;7387235;19;20842;-59
2022/09/06 12:33:59;;;;;;;5.10;2.60;;;35.20;43.60;;;;;;7386984;19;20376;-59
2022/09/06 12:36:33;;;;;;;5.37;2.57;;;35.20;43.00;;;;;;7389476;19;20413;-58
2022/09/06 12:39:05;;;;;;;4.83;2.67;;;35.30;42.80;;;;;;7386197;19;20851;-58
2022/09/06 12:41:43;;;;;;;3.37;3.07;;;35.20;43.30;;;;;;7388127;19;20439;-49
2022/09/06 12:44:16;;;;;;;6.13;3.23;;;34.80;42.80;;;;;;7385696;19;20913;-48
2022/09/06 12:46:50;;;;;;;6.97;3.20;;;34.20;44.20;;;;;;7387532;19;20771;-48
2022/09/06 12:49:22;;;;;;;8.43;3.93;;;33.80;45.80;;;;;;7386098;19;20451;-48
2022/09/06 12:52:09;;;;;;;4.67;3.23;;;33.40;49.60;;;;;;7387948;19;20376;-48
2022/09/06 12:54:46;;;;;;;5.40;4.40;;;33.30;51.80;;;;;;7388455;19;20384;-48
2022/09/06 12:57:20;;;;;;;4.47;3.63;;;33.00;52.80;;;;;;7386968;19;20383;-48
2022/09/06 12:59:55;;;;;;;3.90;3.50;;;32.50;54.20;;;;;;7387419;19;20389;-48
2022/09/06 13:02:31;;;;;;;6.40;3.93;;;32.20;55.00;;;;;;7382532;19;20868;-48
2022/09/06 13:05:05;;;;;;;5.40;3.63;;;31.90;53.50;;;;;;7386287;19;20431;-48
2022/09/06 13:07:43;;;;;;;6.93;2.90;;;31.70;53.50;;;;;;7387682;19;20380;-48
2022/09/06 13:10:14;;;;;;;5.63;3.20;;;31.50;54.10;;;;;;7386919;19;20476;-48
2022/09/06 13:12:51;;;;;;;6.43;4.17;;;31.30;55.60;;;;;;7386028;19;20372;-48
2022/09/06 13:15:27;;;;;;;7.73;3.67;;;31.00;55.50;;;;;;7384569;19;20380;-48
2022/09/06 13:18:17;;;;;;;8.33;4.13;;;30.80;55.90;;;;;;7362304;19;20951;-49
2022/09/06 13:20:59;;;;;;;7.77;4.07;;;30.60;57.70;;;;;;7387623;19;20493;-48
2022/09/06 13:23:41;;;;;;;3.67;3.30;;;30.30;60.30;;;;;;7387463;19;20379;-49